createdAt,value
2023-02-27T00:03:18.029Z,66.62
2023-02-27T00:08:40.193Z,66.51
2023-02-27T00:14:02.093Z,66.89
2023-02-27T00:19:24.019Z,66.75
2023-02-27T00:24:45.846Z,66.46
2023-02-27T00:30:10.084Z,66.55
2023-02-27T00:35:31.914Z,66.27
2023-02-27T00:40:55.423Z,66.29
2023-02-27T00:46:17.535Z,66.09
2023-02-27T00:51:40.122Z,66.06
2023-02-27T00:57:01.936Z,65.57
2023-02-27T01:02:23.784Z,65.49
2023-02-27T01:07:45.799Z,65.41
2023-02-27T01:13:11.159Z,65.20
2023-02-27T01:18:33.191Z,65.18
2023-02-27T01:23:55.179Z,64.89
2023-02-27T01:29:17.030Z,64.36
2023-02-27T01:34:38.866Z,64.47
2023-02-27T01:40:00.862Z,64.26
2023-02-27T01:45:41.651Z,63.87
2023-02-27T01:51:14.221Z,63.82
2023-02-27T01:56:37.178Z,63.87
2023-02-27T02:01:59.360Z,63.26
2023-02-27T02:07:22.253Z,62.66
2023-02-27T02:12:45.256Z,62.43
2023-02-27T02:18:26.370Z,62.30
2023-02-27T02:23:54.621Z,61.92
2023-02-27T02:29:39.732Z,61.67
2023-02-27T02:35:26.871Z,61.96
2023-02-27T02:41:10.356Z,61.63
2023-02-27T02:46:57.180Z,61.79
2023-02-27T02:52:19.105Z,61.32
2023-02-27T02:57:46.328Z,61.32
2023-02-27T03:03:17.513Z,61.38
2023-02-27T03:08:48.801Z,61.57
2023-02-27T03:14:19.250Z,61.22
2023-02-27T03:19:55.187Z,61.41
2023-02-27T03:25:17.441Z,61.69
2023-02-27T03:31:10.009Z,61.36
2023-02-27T03:36:37.823Z,61.67
2023-02-27T03:42:12.581Z,61.80
2023-02-27T03:47:49.176Z,62.15
2023-02-27T03:53:26.159Z,61.86
2023-02-27T03:58:48.088Z,62.49
2023-02-27T04:04:14.036Z,62.62
2023-02-27T04:10:08.774Z,62.59
2023-02-27T04:16:02.181Z,62.92
2023-02-27T04:21:50.436Z,63.22
2023-02-27T04:27:50.401Z,63.00
2023-02-27T04:33:37.220Z,62.97
2023-02-27T04:39:05.200Z,63.19
2023-02-27T04:44:29.309Z,63.56
2023-02-27T04:50:02.214Z,63.36
2023-02-27T04:55:28.531Z,63.54
2023-02-27T05:00:57.377Z,63.81
2023-02-27T05:06:19.614Z,64.16
2023-02-27T05:11:49.662Z,63.94
2023-02-27T05:17:11.598Z,64.40
2023-02-27T05:22:46.977Z,64.34
2023-02-27T05:28:35.201Z,64.45
2023-02-27T05:34:08.510Z,64.38
2023-02-27T05:39:32.606Z,64.21
2023-02-27T05:44:59.251Z,64.11
2023-02-27T05:50:25.472Z,63.84
2023-02-27T05:55:50.477Z,63.62
2023-02-27T06:01:12.936Z,63.23
2023-02-27T06:06:35.587Z,63.64
2023-02-27T06:11:58.128Z,63.58
2023-02-27T06:17:19.972Z,63.41
2023-02-27T06:22:42.182Z,63.51
2023-02-27T06:28:04.614Z,63.93
2023-02-27T06:33:26.739Z,63.79
2023-02-27T06:38:49.171Z,63.63
2023-02-27T06:44:10.995Z,63.28
2023-02-27T06:49:33.241Z,63.21
2023-02-27T06:54:54.982Z,63.24
2023-02-27T07:00:17.948Z,63.10
2023-02-27T07:05:42.027Z,62.70
2023-02-27T07:11:04.456Z,62.33
2023-02-27T07:16:26.683Z,62.02
2023-02-27T07:21:51.368Z,61.49
2023-02-27T07:27:13.464Z,61.22
2023-02-27T07:32:35.407Z,61.76
2023-02-27T07:37:57.450Z,61.58
2023-02-27T07:43:19.648Z,62.34
2023-02-27T07:48:41.506Z,62.20
2023-02-27T07:54:03.508Z,62.46
2023-02-27T07:59:25.240Z,62.55
2023-02-27T08:04:47.159Z,62.82
2023-02-27T08:10:09.706Z,62.57
2023-02-27T08:15:38.745Z,62.76
2023-02-27T08:21:00.677Z,63.19
2023-02-27T08:26:23.317Z,63.05
2023-02-27T08:31:47.041Z,62.95
2023-02-27T08:37:09.582Z,63.02
2023-02-27T08:42:34.618Z,63.09
2023-02-27T08:47:56.349Z,63.28
2023-02-27T08:53:18.532Z,63.85
2023-02-27T08:58:40.402Z,64.11
2023-02-27T09:04:08.685Z,64.62
2023-02-27T09:09:30.384Z,64.09
2023-02-27T09:14:52.213Z,64.55
2023-02-27T09:20:15.864Z,63.46
2023-02-27T09:25:37.781Z,63.51
2023-02-27T09:31:03.630Z,62.87
2023-02-27T09:36:26.117Z,62.33
2023-02-27T09:41:48.395Z,61.49
2023-02-27T09:47:28.681Z,60.73
2023-02-27T09:52:51.564Z,60.53
2023-02-27T09:58:41.035Z,59.58
2023-02-27T10:04:31.870Z,58.73
2023-02-27T10:10:05.438Z,57.31
2023-02-27T10:15:31.776Z,56.71
2023-02-27T10:21:00.590Z,55.53
2023-02-27T10:26:28.329Z,55.19
2023-02-27T10:31:55.601Z,56.10
2023-02-27T10:37:19.075Z,56.30
2023-02-27T10:42:41.790Z,56.12
2023-02-27T10:48:05.035Z,55.44
2023-02-27T10:53:28.180Z,54.71
2023-02-27T10:59:03.355Z,54.02
2023-02-27T11:04:40.517Z,54.31
2023-02-27T11:10:18.615Z,54.59
2023-02-27T11:15:40.655Z,55.22
2023-02-27T11:21:20.503Z,55.27
2023-02-27T11:26:59.322Z,54.97
2023-02-27T11:32:21.989Z,54.35
2023-02-27T11:37:50.012Z,55.34
2023-02-27T11:43:24.988Z,55.39
2023-02-27T11:48:49.124Z,54.69
2023-02-27T11:54:32.500Z,54.01
2023-02-27T12:00:06.745Z,54.15
2023-02-27T12:05:48.268Z,53.03
2023-02-27T12:11:28.543Z,52.07
2023-02-27T12:16:55.379Z,52.54
2023-02-27T12:22:25.394Z,51.28
2023-02-27T12:27:54.175Z,50.87
2023-02-27T12:33:26.713Z,51.46
2023-02-27T12:38:48.638Z,52.21
2023-02-27T12:44:49.601Z,52.12
2023-02-27T12:50:19.850Z,52.49
2023-02-27T12:55:47.524Z,52.01
2023-02-27T13:01:29.785Z,52.24
2023-02-27T13:06:53.552Z,51.98
2023-02-27T13:12:43.989Z,51.32
2023-02-27T13:18:32.814Z,50.30
2023-02-27T13:24:06.533Z,50.13
2023-02-27T13:29:40.957Z,49.18
2023-02-27T13:35:17.442Z,50.03
2023-02-27T13:40:41.151Z,50.67
2023-02-27T13:46:13.449Z,50.85
2023-02-27T13:51:35.390Z,50.70
2023-02-27T13:56:57.789Z,50.96
2023-02-27T14:02:57.794Z,50.96
2023-02-27T14:08:28.715Z,50.45
2023-02-27T14:13:50.672Z,50.10
2023-02-27T14:19:15.300Z,49.12
2023-02-27T14:25:00.968Z,49.46
2023-02-27T14:30:29.550Z,49.90
2023-02-27T14:36:06.228Z,50.43
2023-02-27T14:42:10.239Z,50.20
2023-02-27T14:47:34.659Z,50.57
2023-02-27T14:52:56.709Z,50.09
2023-02-27T14:58:21.955Z,49.54
2023-02-27T15:03:50.458Z,49.40
2023-02-27T15:09:43.280Z,49.36
2023-02-27T15:15:10.098Z,48.60
2023-02-27T15:20:35.111Z,48.54
2023-02-27T15:25:58.941Z,48.94
2023-02-27T15:31:23.578Z,48.79
2023-02-27T15:36:54.810Z,48.21
2023-02-27T15:42:17.474Z,49.44
2023-02-27T15:47:40.957Z,49.93
2023-02-27T15:53:10.156Z,49.86
2023-02-27T15:58:39.616Z,50.29
2023-02-27T16:04:06.384Z,51.11
2023-02-27T16:09:36.102Z,51.27
2023-02-27T16:15:21.113Z,51.24
2023-02-27T16:20:45.189Z,51.45
2023-02-27T16:26:49.230Z,50.95
2023-02-27T16:32:27.017Z,51.00
2023-02-27T16:37:53.898Z,51.07
2023-02-27T16:43:16.317Z,50.93
2023-02-27T16:48:41.243Z,51.52
2023-02-27T16:54:04.079Z,51.48
2023-02-27T16:59:27.311Z,51.85
2023-02-27T17:04:50.226Z,52.18
2023-02-27T17:10:18.619Z,52.03
2023-02-27T17:15:41.820Z,51.92
2023-02-27T17:21:05.268Z,52.03
2023-02-27T17:26:29.420Z,51.86
2023-02-27T17:31:53.375Z,50.90
2023-02-27T17:37:15.963Z,50.94
2023-02-27T17:42:39.506Z,49.71
2023-02-27T17:48:01.528Z,49.17
2023-02-27T17:53:23.271Z,49.67
2023-02-27T17:58:45.711Z,49.82
2023-02-27T18:04:13.507Z,49.90
2023-02-27T18:09:38.280Z,49.93
2023-02-27T18:15:00.804Z,50.43
2023-02-27T18:20:22.731Z,50.87
2023-02-27T18:25:54.298Z,51.27
2023-02-27T18:31:24.570Z,50.92
2023-02-27T18:36:46.686Z,51.21
2023-02-27T18:42:08.321Z,50.82
2023-02-27T18:47:30.481Z,51.12
2023-02-27T18:52:54.376Z,51.39
2023-02-27T18:58:16.493Z,51.61
2023-02-27T19:03:38.748Z,51.68
2023-02-27T19:09:01.576Z,51.60
2023-02-27T19:14:23.743Z,52.17
2023-02-27T19:19:48.547Z,52.03
2023-02-27T19:25:15.998Z,51.87
2023-02-27T19:30:40.189Z,51.93
2023-02-27T19:36:07.898Z,52.25
2023-02-27T19:41:31.334Z,52.50
2023-02-27T19:46:58.093Z,52.72
2023-02-27T19:52:22.696Z,52.63
2023-02-27T19:57:48.298Z,52.71
2023-02-27T20:03:13.868Z,52.89
2023-02-27T20:08:36.261Z,53.01
2023-02-27T20:13:58.457Z,52.96
2023-02-27T20:19:21.963Z,53.29
2023-02-27T20:24:45.005Z,53.26
2023-02-27T20:30:09.083Z,52.78
2023-02-27T20:35:30.926Z,52.88
2023-02-27T20:40:57.929Z,52.91
2023-02-27T20:46:22.531Z,52.84
2023-02-27T20:51:44.906Z,52.41
2023-02-27T20:57:06.854Z,52.62
2023-02-27T21:02:29.375Z,52.05
2023-02-27T21:07:51.886Z,51.54
2023-02-27T21:13:13.715Z,51.57
2023-02-27T21:18:36.780Z,52.11
2023-02-27T21:23:59.195Z,52.40
2023-02-27T21:29:21.611Z,52.06
2023-02-27T21:34:43.336Z,51.70
2023-02-27T21:40:08.789Z,51.88
2023-02-27T21:45:30.806Z,51.58
2023-02-27T21:51:00.370Z,51.56
2023-02-27T21:56:22.294Z,51.44
2023-02-27T22:01:47.591Z,51.60
2023-02-27T22:07:11.449Z,51.33
2023-02-27T22:12:34.499Z,51.66
2023-02-27T22:17:56.337Z,51.78
2023-02-27T22:23:18.362Z,51.62
2023-02-27T22:28:43.510Z,51.08
2023-02-27T22:34:12.397Z,51.74
2023-02-27T22:39:34.489Z,51.79
2023-02-27T22:44:58.126Z,51.38
2023-02-27T22:50:21.727Z,51.12
2023-02-27T22:55:52.920Z,50.70
2023-02-27T23:01:16.525Z,51.60
2023-02-27T23:06:40.083Z,51.16
2023-02-27T23:12:03.931Z,51.02
2023-02-27T23:17:25.423Z,51.13
2023-02-27T23:22:47.379Z,50.85
2023-02-27T23:28:09.207Z,50.60
2023-02-27T23:33:31.765Z,50.83
2023-02-27T23:38:53.568Z,51.21
2023-02-27T23:44:38.582Z,51.16
2023-02-27T23:50:00.220Z,51.29
2023-02-27T23:55:22.744Z,51.57
